createdAt,value
2022-11-17T10:40:42.300Z,75
2022-11-17T10:41:41.094Z,75
2022-11-17T10:42:41.306Z,70
2022-11-17T10:43:43.227Z,70
2022-11-17T10:44:41.114Z,70
2022-11-17T10:45:40.882Z,65
2022-11-17T10:47:04.137Z,70
2022-11-17T10:47:41.353Z,70
2022-11-17T10:48:41.631Z,75
2022-11-17T10:49:41.143Z,70
2022-11-17T10:50:40.849Z,65
2022-11-17T10:51:42.091Z,75
2022-11-17T10:52:41.732Z,70
2022-11-17T10:53:51.176Z,65
2022-11-17T10:54:40.868Z,70
2022-11-17T10:55:41.134Z,75
2022-11-17T10:56:42.592Z,75
2022-11-17T10:57:41.197Z,80
2022-11-17T10:58:41.366Z,80
2022-11-17T10:59:41.173Z,80
2022-11-17T11:00:41.895Z,75
2022-11-17T11:01:41.546Z,80
2022-11-17T11:02:40.935Z,80
2022-11-17T11:03:42.928Z,85
2022-11-17T11:04:41.809Z,85
2022-11-17T11:05:41.703Z,80
2022-11-17T11:06:41.727Z,85
2022-11-17T11:07:41.642Z,80
2022-11-17T11:08:40.945Z,80
2022-11-17T11:09:41.485Z,75
2022-11-17T11:10:41.722Z,70
2022-11-17T11:11:46.206Z,70
2022-11-17T11:12:41.840Z,70
2022-11-17T11:13:41.539Z,75
2022-11-17T11:14:43.191Z,75
2022-11-17T11:15:41.428Z,75
2022-11-17T11:16:48.758Z,75
2022-11-17T11:17:41.290Z,65
2022-11-17T11:18:41.245Z,65
2022-11-17T11:19:41.557Z,60
2022-11-17T11:20:41.888Z,45
2022-11-17T11:21:41.303Z,40
2022-11-17T11:22:41.798Z,35
2022-11-17T11:23:41.796Z,35
2022-11-17T11:24:41.369Z,30
2022-11-17T11:25:41.308Z,30
2022-11-17T11:26:41.271Z,30
2022-11-17T11:27:43.453Z,30
2022-11-17T11:28:54.359Z,30
2022-11-17T11:29:41.498Z,30
2022-11-17T11:30:42.015Z,35
2022-11-17T11:31:41.068Z,35
2022-11-17T11:32:41.114Z,30
2022-11-17T11:33:41.305Z,35
2022-11-17T11:34:41.347Z,40
2022-11-17T11:35:41.576Z,45
2022-11-17T11:36:41.330Z,40
2022-11-17T11:37:42.073Z,45
2022-11-17T11:38:41.405Z,45
2022-11-17T11:39:41.125Z,45
2022-11-17T11:40:41.773Z,45
2022-11-17T11:41:41.404Z,50
2022-11-17T11:42:42.310Z,55
2022-11-17T11:43:42.937Z,65
2022-11-17T11:44:42.992Z,70
2022-11-17T11:45:41.395Z,70
2022-11-17T11:46:42.112Z,75
2022-11-17T11:47:42.067Z,80
2022-11-17T11:48:41.443Z,75
2022-11-17T11:49:42.084Z,75
2022-11-17T11:50:48.669Z,80
2022-11-17T11:51:41.469Z,90
2022-11-17T11:52:41.437Z,105
2022-11-17T11:53:41.428Z,110
2022-11-17T11:54:53.756Z,115
2022-11-17T11:55:42.343Z,140
2022-11-17T11:56:41.428Z,145
2022-11-17T11:57:42.008Z,145
2022-11-17T11:58:42.256Z,110
2022-11-17T11:59:42.760Z,115
2022-11-17T12:00:42.399Z,110
2022-11-17T12:01:41.751Z,100
2022-11-17T12:02:42.567Z,85
2022-11-17T12:03:43.074Z,75
2022-11-17T12:04:41.569Z,80
2022-11-17T12:05:42.011Z,85
2022-11-17T12:06:42.036Z,95
2022-11-17T12:07:42.441Z,130
2022-11-17T12:08:42.088Z,140
2022-11-17T12:09:42.288Z,150
2022-11-17T12:10:41.647Z,135
2022-11-17T12:11:42.050Z,135
2022-11-17T12:12:41.832Z,135
2022-11-17T12:13:56.661Z,125
2022-11-17T12:14:42.079Z,110
2022-11-17T12:15:42.376Z,90
2022-11-17T12:16:42.570Z,90
2022-11-17T12:17:41.946Z,100
2022-11-17T12:18:41.313Z,90
2022-11-17T12:19:42.313Z,85
2022-11-17T12:20:42.043Z,95
2022-11-17T12:21:42.437Z,95
2022-11-17T12:22:41.948Z,95
2022-11-17T12:23:42.459Z,90
